createdAt,value
2023-01-29T00:08:29.009Z,101411.88
2023-01-29T00:30:14.887Z,101414.59
2023-01-29T00:52:18.913Z,101391.48
2023-01-29T01:14:04.642Z,101355.81
2023-01-29T01:35:48.834Z,101330.60
2023-01-29T01:57:35.081Z,101332.43
2023-01-29T02:19:34.709Z,101318.16
2023-01-29T02:41:27.933Z,101334.20
2023-01-29T03:03:19.165Z,101333.26
2023-01-29T03:25:24.659Z,101334.49
2023-01-29T03:47:20.064Z,101324.90
2023-01-29T04:09:07.640Z,101312.69
2023-01-29T04:30:59.811Z,101295.51
2023-01-29T04:52:56.580Z,101270.93
2023-01-29T05:14:45.616Z,101249.20
2023-01-29T05:36:31.438Z,101233.04
2023-01-29T05:58:19.758Z,101232.21
2023-01-29T06:20:06.537Z,101222.79
2023-01-29T06:41:52.299Z,101230.16
2023-01-29T07:03:37.339Z,101255.61
2023-01-29T07:25:23.288Z,101290.45
2023-01-29T07:47:09.212Z,101289.84
2023-01-29T08:08:55.906Z,101286.61
2023-01-29T08:30:45.190Z,101270.74
2023-01-29T08:52:31.698Z,101243.77
2023-01-29T09:14:17.783Z,101215.38
2023-01-29T09:36:05.431Z,101219.11
2023-01-29T09:57:54.314Z,101208.92
2023-01-29T10:20:05.939Z,101160.57
2023-01-29T10:42:20.844Z,101132.80
2023-01-29T11:04:07.745Z,101116.41
2023-01-29T11:25:58.333Z,101088.48
2023-01-29T11:47:49.843Z,101064.73
2023-01-29T12:09:36.707Z,101021.25
2023-01-29T12:31:39.874Z,100980.24
2023-01-29T12:53:33.009Z,100942.21
2023-01-29T13:15:25.884Z,100911.78
2023-01-29T13:37:19.742Z,100902.63
2023-01-29T13:59:07.617Z,100899.90
2023-01-29T14:21:07.861Z,100878.56
2023-01-29T14:43:01.778Z,100877.12
2023-01-29T15:04:51.177Z,100870.55
2023-01-29T15:26:38.632Z,100863.13
2023-01-29T15:48:32.878Z,100868.87
2023-01-29T16:10:21.765Z,100868.20
2023-01-29T16:32:12.881Z,100863.79
2023-01-29T16:54:02.328Z,100852.70
2023-01-29T17:15:49.356Z,100836.32
2023-01-29T17:37:37.829Z,100813.31
2023-01-29T17:59:25.735Z,100801.34
2023-01-29T18:21:11.646Z,100773.70
2023-01-29T18:42:59.781Z,100755.70
2023-01-29T19:04:46.476Z,100728.55
2023-01-29T19:26:34.192Z,100712.85
2023-01-29T19:48:22.212Z,100700.91
2023-01-29T20:10:17.413Z,100670.65
2023-01-29T20:32:04.302Z,100645.07
2023-01-29T20:53:50.761Z,100633.64
2023-01-29T21:15:39.845Z,100619.80
2023-01-29T21:37:25.685Z,100590.63
2023-01-29T21:59:15.000Z,100570.88
2023-01-29T22:21:03.073Z,100536.94
2023-01-29T22:42:48.928Z,100501.27
2023-01-29T23:04:36.744Z,100446.08
2023-01-29T23:26:41.012Z,100401.77
2023-01-29T23:48:27.643Z,100364.89
